Time;durP1;ratioP1;P1;durP2;ratioP2;P2;SDS_P1;SDS_P2;PMS_P1;PMS_P2;Temp;Humidity;BMP_temperature;BMP_pressure;BME280_temperature;BME280_humidity;BME280_pressure;Samples;Min_cycle;Max_cycle;Signal;HPM_P1;HPM_P2
2022/02/12 00:02:25;;;;;;;17.95;13.07;;;0.80;99.90;;;;;;5053722;28;20213;-79
2022/02/12 00:04:53;;;;;;;14.10;11.75;;;0.60;99.90;;;;;;5069909;28;20744;-79
2022/02/12 00:07:19;;;;;;;16.00;14.35;;;0.60;99.90;;;;;;5073763;28;20209;-79
2022/02/12 00:09:46;;;;;;;37.60;16.63;;;0.50;99.90;;;;;;5066670;28;20202;-79
2022/02/12 00:12:13;;;;;;;42.53;15.75;;;0.50;99.90;;;;;;5073537;28;20206;-79
2022/02/12 00:14:40;;;;;;;28.95;18.13;;;0.50;99.90;;;;;;5069850;28;20222;-79
2022/02/12 00:17:06;;;;;;;33.35;18.08;;;0.50;99.90;;;;;;5074120;28;20210;-79
2022/02/12 00:19:34;;;;;;;24.42;16.60;;;0.60;99.90;;;;;;5063255;28;20202;-79
2022/02/12 00:22:02;;;;;;;37.35;19.77;;;0.60;99.90;;;;;;5064095;28;20202;-79
2022/02/12 00:24:29;;;;;;;38.75;17.48;;;0.70;99.90;;;;;;5074387;28;20229;-79
2022/02/12 00:26:55;;;;;;;72.22;20.73;;;0.70;99.90;;;;;;5064278;28;20198;-79
2022/02/12 00:29:22;;;;;;;58.65;22.77;;;0.80;99.90;;;;;;5054327;28;20575;-79
2022/02/12 00:31:49;;;;;;;45.38;18.85;;;0.80;99.90;;;;;;5060691;28;20197;-79
2022/02/12 00:34:16;;;;;;;24.23;14.73;;;0.80;99.90;;;;;;5060437;28;20225;-79
2022/02/12 00:36:42;;;;;;;28.38;15.88;;;0.90;99.90;;;;;;5054752;28;20561;-79
2022/02/12 00:39:13;;;;;;;37.22;18.10;;;0.90;99.90;;;;;;5054297;28;20202;-79
2022/02/12 00:41:40;;;;;;;36.35;19.40;;;1.00;99.90;;;;;;5054921;28;20571;-79
2022/02/12 00:44:07;;;;;;;44.85;17.95;;;1.10;99.90;;;;;;5054381;28;20727;-79
2022/02/12 00:46:34;;;;;;;33.38;17.80;;;1.20;99.90;;;;;;5068964;28;20566;-79
2022/02/12 00:49:00;;;;;;;60.53;19.85;;;1.30;99.90;;;;;;5074332;28;20285;-79
2022/02/12 00:51:27;;;;;;;33.08;17.85;;;1.30;99.90;;;;;;5060767;28;20201;-79
2022/02/12 00:53:54;;;;;;;34.60;15.20;;;1.30;99.90;;;;;;5054560;28;20223;-79
2022/02/12 00:56:22;;;;;;;34.80;15.93;;;1.40;99.90;;;;;;5053798;28;20202;-79
2022/02/12 00:58:49;;;;;;;31.02;16.17;;;1.40;99.90;;;;;;5069646;28;20201;-79
2022/02/12 01:01:15;;;;;;;46.42;19.27;;;1.40;99.90;;;;;;5073734;28;20584;-79
2022/02/12 01:03:42;;;;;;;19.25;14.63;;;1.30;99.90;;;;;;5059182;28;20210;-79
2022/02/12 01:06:09;;;;;;;34.85;17.38;;;1.30;99.90;;;;;;5053620;28;20233;-79
2022/02/12 01:08:36;;;;;;;26.77;15.20;;;1.40;99.90;;;;;;5054356;28;20214;-80
2022/02/12 01:11:03;;;;;;;27.08;15.10;;;1.40;99.90;;;;;;5068083;28;20199;-79
2022/02/12 01:13:32;;;;;;;30.85;16.00;;;1.30;99.90;;;;;;5061468;28;20222;-79
2022/02/12 01:15:59;;;;;;;36.22;15.85;;;1.20;99.90;;;;;;5053058;28;20727;-79
2022/02/12 01:18:25;;;;;;;24.63;15.60;;;1.10;99.90;;;;;;5053654;28;20206;-80
2022/02/12 01:20:52;;;;;;;35.08;18.40;;;1.10;99.90;;;;;;5053020;28;20700;-79
2022/02/12 01:23:19;;;;;;;27.48;15.00;;;1.00;99.90;;;;;;5070460;28;20197;-79
2022/02/12 01:25:48;;;;;;;28.10;15.23;;;1.00;99.90;;;;;;5071197;28;20227;-79
2022/02/12 01:28:15;;;;;;;19.80;13.80;;;0.90;99.90;;;;;;5053102;28;20207;-79
2022/02/12 01:30:44;;;;;;;25.73;16.02;;;0.60;99.90;;;;;;5053804;28;20216;-80
2022/02/12 01:33:11;;;;;;;30.35;17.20;;;0.30;99.90;;;;;;5073319;28;20249;-79
2022/02/12 01:35:38;;;;;;;19.63;16.25;;;0.10;99.90;;;;;;5053144;28;20413;-79
2022/02/12 01:38:05;;;;;;;24.83;16.05;;;0.10;99.90;;;;;;5052171;28;20217;-79
2022/02/12 01:40:32;;;;;;;20.17;14.68;;;-0.10;99.90;;;;;;5070048;28;20212;-79
2022/02/12 01:43:01;;;;;;;22.08;14.63;;;-0.10;99.90;;;;;;5072248;28;20206;-79
2022/02/12 01:45:28;;;;;;;18.83;14.05;;;-0.10;99.90;;;;;;5069309;28;20229;-79
2022/02/12 01:47:56;;;;;;;18.60;13.63;;;0.10;99.90;;;;;;5052926;28;20702;-80
2022/02/12 01:50:24;;;;;;;17.35;14.48;;;0.20;99.90;;;;;;5072531;28;20304;-79
2022/02/12 01:52:51;;;;;;;15.00;13.40;;;0.20;99.90;;;;;;5073046;28;20209;-80
2022/02/12 01:55:18;;;;;;;16.50;13.05;;;0.20;99.90;;;;;;5071897;28;20589;-79
2022/02/12 01:57:45;;;;;;;14.35;12.38;;;0.20;99.90;;;;;;5071724;28;20577;-80
2022/02/12 02:00:14;;;;;;;17.13;14.82;;;0.20;99.90;;;;;;5072219;28;20207;-79
2022/02/12 02:02:41;;;;;;;19.55;14.18;;;0.00;99.90;;;;;;5071971;28;20207;-80
2022/02/12 02:05:11;;;;;;;16.35;13.63;;;0.00;99.90;;;;;;5071504;28;20225;-79
2022/02/12 02:07:38;;;;;;;15.23;13.57;;;0.00;99.90;;;;;;5069068;28;20566;-79
2022/02/12 02:10:06;;;;;;;15.98;13.55;;;0.00;99.90;;;;;;5071941;28;20205;-80
2022/02/12 02:12:33;;;;;;;16.25;14.20;;;0.10;99.90;;;;;;5072574;28;20208;-79
2022/02/12 02:15:00;;;;;;;13.20;11.90;;;0.10;99.90;;;;;;5053032;28;20721;-79
2022/02/12 02:17:27;;;;;;;13.50;12.02;;;0.20;99.90;;;;;;5052592;28;20202;-79
2022/02/12 02:19:54;;;;;;;18.00;13.25;;;0.20;99.90;;;;;;5052677;28;20201;-79
2022/02/12 02:22:29;;;;;;;16.50;12.85;;;0.10;99.90;;;;;;5055977;28;20193;-79
2022/02/12 02:24:57;;;;;;;14.98;13.40;;;-0.10;99.90;;;;;;5072782;28;20224;-78
2022/02/12 02:27:28;;;;;;;14.45;12.10;;;-0.10;99.90;;;;;;5070235;28;20205;-78
2022/02/12 02:29:55;;;;;;;17.00;11.90;;;0.00;99.90;;;;;;5055280;28;20240;-78
2022/02/12 02:32:22;;;;;;;17.00;13.90;;;0.10;99.90;;;;;;5058649;28;20201;-78
2022/02/12 02:34:51;;;;;;;16.02;12.98;;;0.10;99.90;;;;;;5075111;28;20236;-78
2022/02/12 02:37:19;;;;;;;12.98;11.77;;;0.10;99.90;;;;;;5068935;28;20198;-78
2022/02/12 02:39:46;;;;;;;16.30;13.80;;;0.10;99.90;;;;;;5064533;28;20213;-78
2022/02/12 02:42:15;;;;;;;13.07;11.70;;;0.20;99.90;;;;;;5069795;28;20209;-78
2022/02/12 02:44:41;;;;;;;14.52;13.00;;;0.20;99.90;;;;;;5078403;22;20222;-80
2022/02/12 02:49:49;;;;;;;12.20;11.00;;;0.20;99.90;;;;;;5057462;28;20256;-80
2022/02/12 02:57:48;;;;;;;12.60;11.40;;;0.20;99.90;;;;;;5057460;28;20751;-80
2022/02/12 03:00:15;;;;;;;14.02;11.90;;;0.20;99.90;;;;;;5057501;28;20206;-80
2022/02/12 03:02:42;;;;;;;14.13;11.20;;;0.20;99.90;;;;;;5057223;28;20202;-80
2022/02/12 03:05:09;;;;;;;12.45;11.25;;;0.20;99.90;;;;;;5039713;28;20261;-80
2022/02/12 03:07:37;;;;;;;12.45;11.35;;;0.20;99.90;;;;;;5037716;28;20207;-80
2022/02/12 03:10:05;;;;;;;15.85;12.63;;;0.20;99.90;;;;;;5037312;28;20214;-80
2022/02/12 03:12:33;;;;;;;12.35;11.05;;;0.20;99.90;;;;;;5048340;28;20259;-80
2022/02/12 03:15:01;;;;;;;12.65;11.00;;;0.20;99.90;;;;;;5057775;28;20241;-80
2022/02/12 03:17:28;;;;;;;14.50;11.30;;;0.10;99.90;;;;;;5038167;28;20198;-80
2022/02/12 03:19:54;;;;;;;16.58;12.82;;;0.10;99.90;;;;;;5037642;28;20213;-80
2022/02/12 03:22:22;;;;;;;13.30;11.85;;;0.00;99.90;;;;;;5037341;28;20245;-80
2022/02/12 03:24:48;;;;;;;13.23;11.15;;;-0.10;99.90;;;;;;5036809;28;20290;-80
2022/02/12 03:27:15;;;;;;;18.17;12.88;;;-0.10;99.90;;;;;;5054033;28;20202;-80
2022/02/12 03:29:42;;;;;;;13.85;12.52;;;-0.10;99.90;;;;;;5057452;28;20206;-80
2022/02/12 03:32:10;;;;;;;17.88;11.60;;;-0.10;99.90;;;;;;5040108;28;20213;-80
2022/02/12 03:34:37;;;;;;;12.85;11.48;;;0.00;99.90;;;;;;5036596;28;20240;-80
2022/02/12 03:37:04;;;;;;;17.10;13.20;;;-0.10;99.90;;;;;;5036947;28;20209;-80
2022/02/12 03:39:30;;;;;;;15.02;11.80;;;-0.10;99.90;;;;;;5037393;28;20199;-80
2022/02/12 03:41:57;;;;;;;13.32;11.90;;;-0.10;99.90;;;;;;5054888;28;20204;-80
2022/02/12 03:44:24;;;;;;;13.90;11.93;;;-0.10;99.90;;;;;;5056496;28;20198;-80
2022/02/12 03:46:51;;;;;;;20.15;10.30;;;-0.10;99.90;;;;;;5069869;28;20208;-80
2022/02/12 03:49:19;;;;;;;13.25;11.20;;;-0.10;99.90;;;;;;5062289;28;20210;-80
2022/02/12 03:51:45;;;;;;;16.20;11.27;;;-0.10;99.90;;;;;;5058064;28;20220;-80
2022/02/12 03:54:12;;;;;;;14.65;10.75;;;-0.10;99.90;;;;;;5059068;28;20229;-80
2022/02/12 03:56:39;;;;;;;14.98;9.73;;;-0.10;99.90;;;;;;5058394;28;20228;-80
2022/02/12 03:59:06;;;;;;;13.20;9.95;;;-0.10;99.90;;;;;;5073413;28;20213;-80
2022/02/12 04:01:33;;;;;;;17.40;12.10;;;-0.10;99.90;;;;;;5076459;28;20182;-79
2022/02/12 04:03:59;;;;;;;15.27;11.55;;;-0.20;99.90;;;;;;5053520;28;20198;-80
2022/02/12 04:06:27;;;;;;;18.30;13.30;;;-0.30;99.90;;;;;;5040506;28;20322;-80
2022/02/12 04:08:54;;;;;;;16.17;12.77;;;-0.40;99.90;;;;;;5037735;28;20206;-80
2022/02/12 04:11:21;;;;;;;16.92;11.85;;;-0.30;99.90;;;;;;5057859;28;20211;-80
2022/02/12 04:13:48;;;;;;;16.05;12.07;;;-0.30;99.90;;;;;;5058036;28;20234;-80
2022/02/12 04:16:15;;;;;;;16.13;11.30;;;-0.30;99.90;;;;;;5056701;28;20264;-80
2022/02/12 04:18:42;;;;;;;12.07;10.40;;;-0.30;99.90;;;;;;5057463;28;20265;-80
2022/02/12 04:21:09;;;;;;;18.30;11.65;;;-0.30;99.90;;;;;;5052919;28;20664;-80
2022/02/12 04:23:37;;;;;;;12.48;11.15;;;-0.30;99.90;;;;;;5036562;28;20245;-80
2022/02/12 04:26:05;;;;;;;17.38;12.68;;;-0.30;99.90;;;;;;5043012;28;20224;-80
2022/02/12 04:28:36;;;;;;;14.50;12.77;;;-0.30;99.90;;;;;;5056297;28;20206;-80
2022/02/12 04:31:03;;;;;;;18.92;13.68;;;-0.30;99.90;;;;;;5048951;28;20232;-80
2022/02/12 04:33:30;;;;;;;15.82;13.65;;;-0.40;99.90;;;;;;5045706;28;20202;-80
2022/02/12 04:35:57;;;;;;;21.85;14.57;;;-0.30;99.90;;;;;;5054621;28;20221;-80
2022/02/12 04:38:24;;;;;;;21.83;14.63;;;-0.40;99.90;;;;;;5051272;28;20578;-80
2022/02/12 04:40:52;;;;;;;23.10;16.15;;;-0.30;99.90;;;;;;5055264;28;20216;-80
2022/02/12 04:43:18;;;;;;;18.83;14.90;;;-0.30;99.90;;;;;;5054871;28;20201;-80
2022/02/12 04:45:45;;;;;;;18.23;13.52;;;-0.30;99.90;;;;;;5044109;28;20231;-80
2022/02/12 04:48:12;;;;;;;24.85;15.32;;;-0.20;99.90;;;;;;5039460;28;20208;-80
2022/02/12 04:50:39;;;;;;;26.15;15.05;;;-0.20;99.90;;;;;;5055223;28;20209;-80
2022/02/12 04:53:05;;;;;;;30.75;17.58;;;-0.30;99.90;;;;;;5055047;28;20220;-80
2022/02/12 04:55:32;;;;;;;40.92;16.95;;;-0.30;99.90;;;;;;5055401;28;20602;-80
2022/02/12 04:58:00;;;;;;;37.40;18.05;;;-0.30;99.90;;;;;;5055068;28;20209;-80
2022/02/12 05:00:27;;;;;;;29.50;17.10;;;-0.30;99.90;;;;;;5051768;28;20210;-80
2022/02/12 05:02:54;;;;;;;27.27;17.70;;;-0.30;99.90;;;;;;5035745;28;20210;-80
2022/02/12 05:05:21;;;;;;;28.48;16.80;;;-0.30;99.90;;;;;;5037348;28;20737;-80
2022/02/12 05:07:47;;;;;;;19.05;14.50;;;-0.30;99.90;;;;;;5055477;28;20225;-80
2022/02/12 05:10:14;;;;;;;27.42;16.52;;;-0.30;99.90;;;;;;5037984;28;20214;-80
2022/02/12 05:12:41;;;;;;;23.15;15.30;;;-0.30;99.90;;;;;;5034417;28;20206;-80
2022/02/12 05:15:10;;;;;;;19.85;16.27;;;-0.30;99.90;;;;;;5034945;28;20237;-80
2022/02/12 05:17:36;;;;;;;28.92;15.55;;;-0.20;99.90;;;;;;5046340;28;20210;-82
2022/02/12 05:20:04;;;;;;;34.15;16.23;;;-0.20;99.90;;;;;;5055210;28;20221;-80
2022/02/12 05:22:31;;;;;;;22.38;13.95;;;-0.20;99.90;;;;;;5054237;28;20198;-80
2022/02/12 05:24:58;;;;;;;23.55;15.38;;;-0.20;99.90;;;;;;5054822;28;20229;-80
2022/02/12 05:27:24;;;;;;;24.25;14.85;;;-0.20;99.90;;;;;;5040044;28;20202;-80
2022/02/12 05:29:51;;;;;;;21.63;14.00;;;-0.30;99.90;;;;;;5034572;28;20210;-80
2022/02/12 05:32:20;;;;;;;19.13;14.43;;;-0.40;99.90;;;;;;5034474;28;20289;-80
2022/02/12 05:34:46;;;;;;;34.35;14.63;;;-0.40;99.90;;;;;;5034819;28;20233;-80
2022/02/12 05:37:13;;;;;;;23.67;14.43;;;-0.40;99.90;;;;;;5045984;28;20205;-80
2022/02/12 05:39:40;;;;;;;20.58;14.13;;;-0.70;99.90;;;;;;5054757;28;20210;-80
2022/02/12 05:42:07;;;;;;;34.17;15.85;;;-0.80;99.90;;;;;;5053721;28;20197;-80
2022/02/12 05:44:34;;;;;;;18.88;14.30;;;-1.00;99.90;;;;;;5053129;28;20205;-80
2022/02/12 05:47:00;;;;;;;19.10;13.85;;;-1.00;99.90;;;;;;5034739;28;20206;-80
2022/02/12 05:49:28;;;;;;;21.13;14.13;;;-1.00;99.90;;;;;;5034782;28;20214;-80
2022/02/12 05:51:55;;;;;;;23.02;14.85;;;-1.10;99.90;;;;;;5034895;28;20202;-80
2022/02/12 05:54:22;;;;;;;21.42;15.57;;;-1.20;99.90;;;;;;5034993;28;20622;-80
2022/02/12 05:56:48;;;;;;;16.40;13.15;;;-1.10;99.90;;;;;;5049838;28;20217;-80
2022/02/12 05:59:18;;;;;;;21.63;15.20;;;-1.10;99.90;;;;;;5034537;28;20214;-80
2022/02/12 06:01:45;;;;;;;21.77;14.95;;;-1.20;99.90;;;;;;5035400;28;20206;-80
2022/02/12 06:04:12;;;;;;;20.17;16.17;;;-1.30;99.90;;;;;;5035313;28;20578;-80
2022/02/12 06:06:40;;;;;;;20.65;12.98;;;-1.40;99.90;;;;;;5053494;28;20226;-81
2022/02/12 06:09:06;;;;;;;24.15;13.13;;;-1.30;99.90;;;;;;5057128;28;20363;-79
2022/02/12 06:11:33;;;;;;;17.85;12.25;;;-1.30;99.90;;;;;;5039540;28;20238;-80
2022/02/12 06:14:00;;;;;;;20.67;14.52;;;-1.20;99.90;;;;;;5037199;28;20198;-79
2022/02/12 06:16:27;;;;;;;15.73;12.93;;;-1.10;99.90;;;;;;5054007;28;20677;-79
2022/02/12 06:18:54;;;;;;;18.58;12.25;;;-1.10;99.90;;;;;;5054477;28;20206;-79
2022/02/12 06:21:21;;;;;;;16.45;12.60;;;-1.10;99.90;;;;;;5053961;28;20574;-79
2022/02/12 06:23:49;;;;;;;18.10;12.43;;;-1.00;99.90;;;;;;5044166;28;20206;-79
2022/02/12 06:26:15;;;;;;;19.02;13.75;;;-1.00;99.90;;;;;;5037837;28;20229;-79
2022/02/12 06:28:42;;;;;;;15.48;13.80;;;-1.00;99.90;;;;;;5046369;28;20212;-79
2022/02/12 06:31:09;;;;;;;14.95;12.90;;;-1.00;99.90;;;;;;5058091;28;20205;-79
2022/02/12 06:33:36;;;;;;;15.30;12.15;;;-1.00;99.90;;;;;;5050804;28;20663;-79
2022/02/12 06:36:03;;;;;;;17.45;12.65;;;-1.00;99.90;;;;;;5038183;28;20230;-79
2022/02/12 06:38:30;;;;;;;18.05;11.63;;;-1.00;99.90;;;;;;5043088;28;20201;-79
2022/02/12 06:40:58;;;;;;;15.82;12.30;;;-0.90;99.90;;;;;;5057725;28;20206;-80
2022/02/12 06:43:25;;;;;;;13.98;12.52;;;-0.90;99.90;;;;;;5057618;28;20639;-80
2022/02/12 06:45:52;;;;;;;16.88;11.80;;;-0.90;99.90;;;;;;5057947;28;20225;-80
2022/02/12 06:48:19;;;;;;;23.70;13.95;;;-0.90;99.90;;;;;;5058084;28;20198;-80
2022/02/12 06:50:46;;;;;;;18.13;13.50;;;-0.80;99.90;;;;;;5057738;28;20205;-80
2022/02/12 06:53:13;;;;;;;18.65;12.55;;;-0.80;99.90;;;;;;5058089;28;20291;-80
2022/02/12 06:55:40;;;;;;;19.70;13.13;;;-0.80;99.90;;;;;;5056726;28;20237;-80
2022/02/12 06:58:08;;;;;;;12.73;10.57;;;-0.80;99.90;;;;;;5057469;28;20214;-80
2022/02/12 07:00:34;;;;;;;17.05;10.45;;;-0.80;99.90;;;;;;5057322;28;20607;-80
2022/02/12 07:03:01;;;;;;;14.00;11.75;;;-0.70;99.90;;;;;;5057597;28;20206;-80
2022/02/12 07:05:28;;;;;;;18.50;12.02;;;-0.70;99.90;;;;;;5052372;28;20226;-80
2022/02/12 07:07:55;;;;;;;17.65;12.02;;;-0.70;99.90;;;;;;5046505;28;20228;-80
2022/02/12 07:10:22;;;;;;;16.15;11.60;;;-0.80;99.90;;;;;;5053170;28;20547;-80
2022/02/12 07:12:50;;;;;;;19.70;13.23;;;-0.70;99.90;;;;;;5038298;28;20718;-80
2022/02/12 07:15:18;;;;;;;16.83;12.50;;;-0.70;99.90;;;;;;5039201;28;20676;-80
2022/02/12 07:17:45;;;;;;;18.10;12.35;;;-0.70;99.90;;;;;;5057171;28;20206;-80
2022/02/12 07:20:14;;;;;;;25.13;13.18;;;-0.70;99.90;;;;;;5046669;28;20207;-79
2022/02/12 07:22:41;;;;;;;18.30;12.60;;;-0.70;99.90;;;;;;5037113;28;20206;-79
2022/02/12 07:25:09;;;;;;;13.52;11.23;;;-0.70;99.90;;;;;;5045756;28;20218;-79
2022/02/12 07:27:38;;;;;;;17.40;12.80;;;-0.50;99.90;;;;;;5056808;28;20205;-79
2022/02/12 07:30:06;;;;;;;15.63;12.30;;;-0.40;99.90;;;;;;5036889;28;20686;-79
2022/02/12 07:32:35;;;;;;;18.45;12.65;;;-0.50;99.90;;;;;;5037581;28;20210;-79
2022/02/12 07:35:01;;;;;;;15.35;11.35;;;-0.40;99.90;;;;;;5055926;28;20229;-80
2022/02/12 07:37:28;;;;;;;16.73;11.90;;;-0.50;99.90;;;;;;5043414;28;20202;-80
2022/02/12 07:39:55;;;;;;;16.65;12.38;;;-0.50;99.90;;;;;;5036917;28;20289;-79
2022/02/12 07:42:22;;;;;;;15.43;11.93;;;-0.30;99.90;;;;;;5037222;28;20206;-80
2022/02/12 07:44:48;;;;;;;27.88;11.07;;;-0.20;99.90;;;;;;5054660;28;20226;-80
2022/02/12 07:47:15;;;;;;;20.63;11.98;;;-0.10;99.90;;;;;;5057037;28;20205;-80
2022/02/12 07:49:43;;;;;;;14.90;11.90;;;-0.10;99.90;;;;;;5058790;28;20205;-81
2022/02/12 07:52:10;;;;;;;16.13;11.27;;;-0.10;99.90;;;;;;5048671;28;20206;-80
2022/02/12 07:54:36;;;;;;;16.55;10.63;;;0.00;99.90;;;;;;5036259;28;20211;-80
2022/02/12 07:57:04;;;;;;;17.23;10.90;;;0.10;99.90;;;;;;5056500;28;20233;-80
2022/02/12 07:59:30;;;;;;;17.15;10.48;;;0.20;99.90;;;;;;5056777;28;20202;-81
2022/02/12 08:01:57;;;;;;;13.30;9.98;;;0.30;99.90;;;;;;5036950;28;20207;-80
2022/02/12 08:04:24;;;;;;;16.13;9.80;;;0.30;99.90;;;;;;5036506;28;20210;-80
2022/02/12 08:09:36;;;;;;;22.70;11.40;;;0.50;99.90;;;;;;5036406;28;20194;-81
2022/02/12 08:12:13;;;;;;;20.92;11.23;;;0.60;99.90;;;;;;5036517;28;20230;-80
2022/02/12 08:14:41;;;;;;;22.42;10.48;;;0.70;99.90;;;;;;5036145;28;20179;-80
2022/02/12 08:17:07;;;;;;;17.45;10.60;;;0.70;99.90;;;;;;5036415;28;20202;-80
2022/02/12 08:19:34;;;;;;;18.83;11.15;;;0.80;99.90;;;;;;5036928;28;20215;-80
2022/02/12 08:22:02;;;;;;;17.73;11.70;;;0.90;99.90;;;;;;5036195;28;20209;-80
2022/02/12 08:24:29;;;;;;;21.05;14.50;;;1.00;99.90;;;;;;5036835;28;20208;-80
2022/02/12 08:26:56;;;;;;;15.77;11.38;;;1.10;99.90;;;;;;5037115;28;20204;-80
2022/02/12 08:29:24;;;;;;;18.73;11.73;;;1.10;99.90;;;;;;5036137;28;20214;-81
2022/02/12 08:31:51;;;;;;;22.60;12.25;;;1.20;99.90;;;;;;5035914;28;20210;-81
2022/02/12 08:34:18;;;;;;;20.98;12.35;;;1.20;99.90;;;;;;5048260;28;20212;-80
2022/02/12 08:36:44;;;;;;;16.92;11.02;;;1.20;99.90;;;;;;5055135;28;20235;-80
2022/02/12 08:39:12;;;;;;;17.83;10.30;;;1.30;99.90;;;;;;5015691;28;20672;-81
2022/02/12 08:41:39;;;;;;;15.50;11.73;;;1.30;99.90;;;;;;5015747;28;20215;-81
2022/02/12 08:44:06;;;;;;;16.25;10.57;;;1.30;99.90;;;;;;5018020;28;20218;-81
2022/02/12 08:46:33;;;;;;;17.23;10.50;;;1.40;99.90;;;;;;5074252;22;20240;-79
2022/02/12 08:49:00;;;;;;;18.85;9.90;;;1.30;99.90;;;;;;5089399;28;20202;-80
2022/02/12 08:51:27;;;;;;;17.58;11.77;;;1.30;99.90;;;;;;5088084;28;20215;-82
2022/02/12 08:53:54;;;;;;;19.80;11.02;;;1.40;99.90;;;;;;5078187;28;20302;-81
2022/02/12 08:56:24;;;;;;;14.52;10.38;;;1.50;99.90;;;;;;5075337;28;20227;-77
2022/02/12 08:58:51;;;;;;;18.20;11.10;;;1.60;99.90;;;;;;5072434;28;20293;-77
2022/02/12 09:01:18;;;;;;;15.50;9.52;;;1.60;99.90;;;;;;5078350;28;20211;-80
2022/02/12 09:03:45;;;;;;;15.25;8.80;;;1.70;99.90;;;;;;5082503;28;20194;-81
2022/02/12 09:06:12;;;;;;;15.85;9.18;;;1.70;99.90;;;;;;5081899;28;20718;-81
2022/02/12 09:08:39;;;;;;;15.80;10.02;;;1.70;99.90;;;;;;5080479;28;20197;-82
2022/02/12 09:11:06;;;;;;;20.48;9.40;;;1.80;99.90;;;;;;5082472;28;20202;-81
2022/02/12 09:13:34;;;;;;;15.52;9.07;;;1.90;99.90;;;;;;5077715;28;20202;-78
2022/02/12 09:16:01;;;;;;;13.98;10.43;;;2.00;99.90;;;;;;5074386;28;20231;-79
2022/02/12 09:18:27;;;;;;;14.43;9.15;;;2.00;99.90;;;;;;5073678;28;20202;-79
2022/02/12 09:20:54;;;;;;;12.77;8.52;;;2.20;99.90;;;;;;5072645;28;20206;-77
2022/02/12 09:23:21;;;;;;;19.65;8.35;;;2.20;99.90;;;;;;5072363;28;20210;-77
2022/02/12 09:25:47;;;;;;;13.80;9.57;;;2.20;99.90;;;;;;5073105;28;20230;-76
2022/02/12 09:28:17;;;;;;;9.35;8.32;;;2.30;99.90;;;;;;5072883;28;20291;-76
2022/02/12 09:30:45;;;;;;;11.73;9.27;;;2.30;99.90;;;;;;5076964;28;20597;-77
2022/02/12 09:33:12;;;;;;;12.48;8.05;;;2.50;99.90;;;;;;5072705;28;20208;-77
2022/02/12 09:35:39;;;;;;;12.10;8.00;;;2.50;99.90;;;;;;5073418;28;20581;-79
2022/02/12 09:38:06;;;;;;;11.20;8.98;;;2.60;99.90;;;;;;5073605;28;20400;-76
2022/02/12 09:40:33;;;;;;;12.32;8.48;;;2.70;99.90;;;;;;5074301;28;20217;-79
2022/02/12 09:43:01;;;;;;;14.80;8.55;;;2.80;99.90;;;;;;5074881;28;20203;-79
2022/02/12 09:45:33;;;;;;;14.30;8.45;;;2.90;99.90;;;;;;5076472;28;20615;-81
2022/02/12 09:48:03;;;;;;;9.98;7.97;;;3.00;99.90;;;;;;5077973;28;20208;-80
2022/02/12 09:50:30;;;;;;;12.00;7.95;;;3.00;99.90;;;;;;5077007;28;20262;-80
2022/02/12 09:52:57;;;;;;;9.07;7.53;;;3.10;99.90;;;;;;5078221;28;20669;-78
2022/02/12 09:55:24;;;;;;;11.43;7.55;;;3.30;99.90;;;;;;5078490;28;20248;-81
2022/02/12 09:57:51;;;;;;;15.90;8.10;;;3.40;99.90;;;;;;5076417;28;20208;-79
2022/02/12 10:00:19;;;;;;;14.98;7.68;;;3.60;99.90;;;;;;5076110;28;20214;-81
2022/02/12 10:02:46;;;;;;;8.20;5.45;;;3.70;99.90;;;;;;5077581;28;20205;-78
2022/02/12 10:05:26;;;;;;;10.05;6.45;;;3.80;99.90;;;;;;5077723;28;20263;-79
2022/02/12 10:08:09;;;;;;;7.53;6.72;;;4.00;99.90;;;;;;5059489;28;20216;-81
2022/02/12 10:10:38;;;;;;;10.60;8.43;;;4.10;99.90;;;;;;5060607;28;20243;-82
2022/02/12 10:13:12;;;;;;;11.35;6.93;;;4.20;99.90;;;;;;5078300;28;20216;-81
2022/02/12 10:15:41;;;;;;;11.60;6.53;;;4.30;99.90;;;;;;5079032;28;20247;-81
2022/02/12 10:18:08;;;;;;;9.35;8.20;;;4.40;99.90;;;;;;5079465;28;20277;-80
2022/02/12 10:20:39;;;;;;;10.70;6.53;;;4.50;99.90;;;;;;5077572;28;20213;-80
2022/02/12 10:23:08;;;;;;;10.10;5.95;;;4.60;99.90;;;;;;5078018;28;20210;-78
2022/02/12 10:25:36;;;;;;;8.60;6.50;;;4.80;99.90;;;;;;5075883;28;20224;-79
2022/02/12 10:28:03;;;;;;;14.98;8.07;;;4.90;99.90;;;;;;5076115;28;20208;-79
2022/02/12 10:30:31;;;;;;;8.60;6.25;;;5.00;99.90;;;;;;5075063;28;20208;-79
2022/02/12 10:32:59;;;;;;;9.80;6.00;;;5.10;99.90;;;;;;5076144;28;20218;-79
2022/02/12 10:35:27;;;;;;;12.05;7.25;;;5.30;99.90;;;;;;5076845;28;20225;-78
2022/02/12 10:37:59;;;;;;;7.28;6.57;;;5.30;99.90;;;;;;5076191;28;20301;-79
2022/02/12 10:40:27;;;;;;;9.95;6.55;;;5.40;99.90;;;;;;5075625;28;20588;-79
2022/02/12 10:42:55;;;;;;;7.00;5.55;;;5.50;99.90;;;;;;5075881;28;20380;-80
2022/02/12 10:45:25;;;;;;;7.28;6.32;;;5.60;99.90;;;;;;5077519;28;20233;-79
2022/02/12 10:47:53;;;;;;;5.82;5.00;;;5.70;99.90;;;;;;5077504;28;20201;-81
2022/02/12 10:50:21;;;;;;;7.18;6.53;;;5.80;99.90;;;;;;5077208;28;20205;-80
2022/02/12 10:52:49;;;;;;;12.43;4.97;;;5.90;99.90;;;;;;5077401;28;20576;-80
2022/02/12 10:55:32;;;;;;;7.45;6.75;;;6.00;99.90;;;;;;5075458;28;20237;-79
2022/02/12 10:58:01;;;;;;;7.88;6.30;;;6.00;99.90;;;;;;5075737;28;20201;-81
2022/02/12 11:00:30;;;;;;;8.15;6.55;;;6.20;99.90;;;;;;5074662;28;20197;-79
2022/02/12 11:02:57;;;;;;;7.97;6.22;;;6.30;99.90;;;;;;5074680;28;20216;-81
2022/02/12 11:05:25;;;;;;;8.52;6.10;;;6.60;99.90;;;;;;5075463;28;20220;-80
2022/02/12 11:07:52;;;;;;;9.27;6.22;;;6.80;99.90;;;;;;5079237;28;20276;-80
2022/02/12 11:10:20;;;;;;;7.30;5.88;;;7.20;99.10;;;;;;5078140;28;20237;-82
2022/02/12 11:12:49;;;;;;;9.23;5.72;;;7.60;99.90;;;;;;5079804;28;20210;-82
2022/02/12 11:15:16;;;;;;;6.05;5.32;;;8.30;98.30;;;;;;5081253;28;20650;-82
2022/02/12 11:17:44;;;;;;;9.35;6.13;;;8.60;95.80;;;;;;5083689;28;20236;-82
2022/02/12 11:20:12;;;;;;;7.38;6.78;;;9.40;97.80;;;;;;5083880;28;20218;-81
2022/02/12 11:22:41;;;;;;;8.57;7.90;;;10.30;95.60;;;;;;5083644;28;20207;-82
2022/02/12 11:25:33;;;;;;;6.97;5.93;;;11.00;94.70;;;;;;5083525;28;20471;-82
2022/02/12 11:28:10;;;;;;;5.83;5.13;;;11.80;92.80;;;;;;5086055;28;20445;-82
2022/02/12 11:30:38;;;;;;;8.07;6.23;;;12.30;91.10;;;;;;5080178;28;20561;-80
2022/02/12 11:33:10;;;;;;;7.77;7.17;;;13.10;88.50;;;;;;5080501;28;21002;-80
2022/02/12 11:35:37;;;;;;;6.30;5.70;;;13.70;82.80;;;;;;5081969;28;20464;-79
2022/02/12 11:38:34;;;;;;;6.27;4.73;;;13.40;78.30;;;;;;5081698;28;20454;-81
2022/02/12 11:41:20;;;;;;;9.33;5.03;;;13.50;78.50;;;;;;5079967;28;20478;-81
2022/02/12 11:43:49;;;;;;;6.13;5.17;;;13.90;77.10;;;;;;5080314;28;20457;-81
2022/02/12 11:46:36;;;;;;;7.80;5.63;;;14.30;78.30;;;;;;5080250;28;20502;-79
2022/02/12 11:49:27;;;;;;;8.73;5.60;;;14.50;74.60;;;;;;5079205;28;20455;-81
2022/02/12 11:51:54;;;;;;;7.97;5.13;;;15.00;72.50;;;;;;5086431;28;20449;-80
2022/02/12 11:54:47;;;;;;;7.63;4.57;;;14.60;67.20;;;;;;5088607;28;20436;-81
2022/02/12 11:57:17;;;;;;;9.27;5.87;;;14.20;68.00;;;;;;5086243;28;20483;-79
2022/02/12 11:59:45;;;;;;;6.30;5.67;;;13.80;68.90;;;;;;5087875;28;20815;-81
2022/02/12 12:02:39;;;;;;;7.97;5.00;;;13.70;68.20;;;;;;5087407;28;20474;-78
2022/02/12 12:05:13;;;;;;;5.40;4.90;;;13.50;68.90;;;;;;5084830;28;20467;-80
2022/02/12 12:08:10;;;;;;;6.17;5.13;;;13.40;69.30;;;;;;5084078;28;20504;-79
2022/02/12 12:11:02;;;;;;;5.60;5.00;;;13.20;68.50;;;;;;5083083;28;20473;-81
2022/02/12 12:13:39;;;;;;;5.87;4.87;;;13.20;71.20;;;;;;5088291;28;20535;-81
2022/02/12 12:16:28;;;;;;;4.37;3.97;;;13.80;67.70;;;;;;5082494;28;20477;-81
2022/02/12 12:18:55;;;;;;;3.37;3.07;;;13.70;63.50;;;;;;5078833;28;20443;-81
2022/02/12 12:21:23;;;;;;;3.50;3.20;;;13.20;65.70;;;;;;5078777;28;20444;-82
2022/02/12 12:24:01;;;;;;;3.87;3.53;;;13.20;67.80;;;;;;5079740;28;20447;-81
2022/02/12 12:26:45;;;;;;;3.20;2.90;;;13.40;65.10;;;;;;5079616;28;20474;-82
2022/02/12 12:32:07;;;;;;;2.80;2.50;;;14.50;61.10;;;;;;5078239;28;20418;-81
2022/02/12 12:34:35;;;;;;;3.00;2.77;;;14.10;57.50;;;;;;5079465;28;20458;-83
2022/02/12 12:37:05;;;;;;;3.00;2.80;;;14.20;58.30;;;;;;5080720;28;20497;-80
2022/02/12 12:39:34;;;;;;;2.87;2.37;;;15.00;59.40;;;;;;5077929;28;20539;-81
2022/02/12 12:42:02;;;;;;;2.27;1.97;;;15.20;55.70;;;;;;5077130;28;20447;-79
2022/02/12 12:44:29;;;;;;;4.70;2.97;;;15.40;54.50;;;;;;5078529;28;20462;-78
2022/02/12 12:46:57;;;;;;;7.80;2.80;;;15.60;53.80;;;;;;5085215;28;20485;-78
2022/02/12 12:49:30;;;;;;;2.30;2.10;;;15.70;52.80;;;;;;5086843;28;20456;-79
2022/02/12 12:51:58;;;;;;;2.67;1.80;;;16.00;52.20;;;;;;5077897;28;20459;-79
2022/02/12 12:54:32;;;;;;;1.90;1.80;;;16.20;50.40;;;;;;5079600;28;20535;-80
2022/02/12 12:57:00;;;;;;;2.07;1.40;;;15.60;49.80;;;;;;5063826;28;20559;-79
2022/02/12 12:59:27;;;;;;;2.60;2.40;;;15.70;49.50;;;;;;5083245;28;20443;-79